sensor_id;sensor_type;location;lat;lon;timestamp;temperature;humidity
32173;DHT22;18679;45.190;5.722;2022-10-16T00:02:39;19.50;64.00
32173;DHT22;18679;45.190;5.722;2022-10-16T00:05:41;19.50;64.10
32173;DHT22;18679;45.190;5.722;2022-10-16T00:08:43;19.50;64.00
32173;DHT22;18679;45.190;5.722;2022-10-16T00:11:45;19.50;64.00
32173;DHT22;18679;45.190;5.722;2022-10-16T00:14:46;19.50;63.90
32173;DHT22;18679;45.190;5.722;2022-10-16T00:17:47;19.50;63.70
32173;DHT22;18679;45.190;5.722;2022-10-16T00:20:47;19.60;63.70
32173;DHT22;18679;45.190;5.722;2022-10-16T00:23:57;19.50;63.60
32173;DHT22;18679;45.190;5.722;2022-10-16T00:27:01;19.50;63.60
32173;DHT22;18679;45.190;5.722;2022-10-16T00:30:02;19.50;63.60
32173;DHT22;18679;45.190;5.722;2022-10-16T00:33:03;19.40;63.80
32173;DHT22;18679;45.190;5.722;2022-10-16T00:36:05;19.40;64.00
32173;DHT22;18679;45.190;5.722;2022-10-16T00:39:06;19.30;64.10
32173;DHT22;18679;45.190;5.722;2022-10-16T00:42:20;19.30;64.30
32173;DHT22;18679;45.190;5.722;2022-10-16T00:45:21;19.20;64.40
32173;DHT22;18679;45.190;5.722;2022-10-16T00:48:21;19.20;64.60
32173;DHT22;18679;45.190;5.722;2022-10-16T00:51:25;19.10;64.70
32173;DHT22;18679;45.190;5.722;2022-10-16T00:54:30;19.10;64.70
32173;DHT22;18679;45.190;5.722;2022-10-16T00:57:31;19.10;64.70
32173;DHT22;18679;45.190;5.722;2022-10-16T01:00:33;19.10;64.70
32173;DHT22;18679;45.190;5.722;2022-10-16T01:03:35;19.10;64.70
32173;DHT22;18679;45.190;5.722;2022-10-16T01:10:17;19.00;64.70
32173;DHT22;18679;45.190;5.722;2022-10-16T01:13:26;19.00;64.70
32173;DHT22;18679;45.190;5.722;2022-10-16T01:17:04;19.00;64.60
32173;DHT22;18679;45.190;5.722;2022-10-16T01:20:33;19.00;64.60
32173;DHT22;18679;45.190;5.722;2022-10-16T01:23:36;19.00;64.60
32173;DHT22;18679;45.190;5.722;2022-10-16T01:30:32;19.00;64.60
32173;DHT22;18679;45.190;5.722;2022-10-16T01:33:46;18.90;64.70
32173;DHT22;18679;45.190;5.722;2022-10-16T01:36:55;18.90;64.70
32173;DHT22;18679;45.190;5.722;2022-10-16T01:40:00;18.90;64.60
32173;DHT22;18679;45.190;5.722;2022-10-16T01:43:06;18.90;64.70
32173;DHT22;18679;45.190;5.722;2022-10-16T01:46:10;18.90;64.70
32173;DHT22;18679;45.190;5.722;2022-10-16T01:49:14;18.80;64.70
32173;DHT22;18679;45.190;5.722;2022-10-16T01:52:21;18.80;64.80
32173;DHT22;18679;45.190;5.722;2022-10-16T01:55:28;18.80;64.90
32173;DHT22;18679;45.190;5.722;2022-10-16T01:58:34;18.80;65.00
32173;DHT22;18679;45.190;5.722;2022-10-16T02:01:38;18.80;65.20
32173;DHT22;18679;45.190;5.722;2022-10-16T02:04:45;18.70;65.20
32173;DHT22;18679;45.190;5.722;2022-10-16T02:07:48;18.70;65.30
32173;DHT22;18679;45.190;5.722;2022-10-16T02:10:49;18.70;65.20
32173;DHT22;18679;45.190;5.722;2022-10-16T02:14:00;18.80;65.20
32173;DHT22;18679;45.190;5.722;2022-10-16T02:17:10;18.70;65.30
32173;DHT22;18679;45.190;5.722;2022-10-16T02:20:12;18.80;65.20
32173;DHT22;18679;45.190;5.722;2022-10-16T02:23:20;18.80;65.10
32173;DHT22;18679;45.190;5.722;2022-10-16T02:26:37;18.80;65.20
32173;DHT22;18679;45.190;5.722;2022-10-16T02:29:45;18.80;65.20
32173;DHT22;18679;45.190;5.722;2022-10-16T02:32:50;18.80;65.10
32173;DHT22;18679;45.190;5.722;2022-10-16T02:35:52;18.90;65.00
32173;DHT22;18679;45.190;5.722;2022-10-16T02:38:54;18.90;64.80
32173;DHT22;18679;45.190;5.722;2022-10-16T02:41:55;18.80;64.90
32173;DHT22;18679;45.190;5.722;2022-10-16T02:44:56;18.70;65.00
32173;DHT22;18679;45.190;5.722;2022-10-16T02:47:57;18.60;65.20
32173;DHT22;18679;45.190;5.722;2022-10-16T02:50:58;18.60;65.40
32173;DHT22;18679;45.190;5.722;2022-10-16T02:53:59;18.50;65.40
32173;DHT22;18679;45.190;5.722;2022-10-16T02:57:00;18.50;65.40
32173;DHT22;18679;45.190;5.722;2022-10-16T03:00:00;18.50;65.60
32173;DHT22;18679;45.190;5.722;2022-10-16T03:03:01;18.50;65.70
32173;DHT22;18679;45.190;5.722;2022-10-16T03:06:02;18.50;65.80
32173;DHT22;18679;45.190;5.722;2022-10-16T03:09:03;18.50;65.90
32173;DHT22;18679;45.190;5.722;2022-10-16T03:12:04;18.50;65.90
32173;DHT22;18679;45.190;5.722;2022-10-16T03:15:06;18.50;65.90
32173;DHT22;18679;45.190;5.722;2022-10-16T03:18:07;18.60;65.80
32173;DHT22;18679;45.190;5.722;2022-10-16T03:21:08;18.60;65.80
32173;DHT22;18679;45.190;5.722;2022-10-16T03:24:09;18.50;65.60
32173;DHT22;18679;45.190;5.722;2022-10-16T03:27:10;18.60;65.70
32173;DHT22;18679;45.190;5.722;2022-10-16T03:30:11;18.60;65.70
32173;DHT22;18679;45.190;5.722;2022-10-16T03:33:12;18.60;65.60
32173;DHT22;18679;45.190;5.722;2022-10-16T03:36:13;18.60;65.70
32173;DHT22;18679;45.190;5.722;2022-10-16T03:39:14;18.50;65.60
32173;DHT22;18679;45.190;5.722;2022-10-16T03:42:14;18.50;65.60
32173;DHT22;18679;45.190;5.722;2022-10-16T03:45:15;18.50;65.60
32173;DHT22;18679;45.190;5.722;2022-10-16T03:48:17;18.50;65.60
32173;DHT22;18679;45.190;5.722;2022-10-16T03:51:18;18.40;65.60
32173;DHT22;18679;45.190;5.722;2022-10-16T03:54:19;18.50;65.60
32173;DHT22;18679;45.190;5.722;2022-10-16T03:57:20;18.40;65.50
32173;DHT22;18679;45.190;5.722;2022-10-16T04:00:21;18.40;65.50
32173;DHT22;18679;45.190;5.722;2022-10-16T04:03:22;18.40;65.60
32173;DHT22;18679;45.190;5.722;2022-10-16T04:06:23;18.40;65.60
32173;DHT22;18679;45.190;5.722;2022-10-16T04:09:24;18.40;65.70
32173;DHT22;18679;45.190;5.722;2022-10-16T04:12:26;18.40;65.60
32173;DHT22;18679;45.190;5.722;2022-10-16T04:15:28;18.40;65.60
32173;DHT22;18679;45.190;5.722;2022-10-16T04:18:29;18.30;65.70
32173;DHT22;18679;45.190;5.722;2022-10-16T04:21:30;18.20;65.70
32173;DHT22;18679;45.190;5.722;2022-10-16T04:24:31;18.20;65.90
32173;DHT22;18679;45.190;5.722;2022-10-16T04:27:32;18.20;66.10
32173;DHT22;18679;45.190;5.722;2022-10-16T04:30:33;18.10;66.10
32173;DHT22;18679;45.190;5.722;2022-10-16T04:33:34;18.10;66.30
32173;DHT22;18679;45.190;5.722;2022-10-16T04:36:35;18.10;66.40
32173;DHT22;18679;45.190;5.722;2022-10-16T04:39:36;18.00;66.40
32173;DHT22;18679;45.190;5.722;2022-10-16T04:42:37;18.00;66.50
32173;DHT22;18679;45.190;5.722;2022-10-16T04:45:38;17.90;66.60
32173;DHT22;18679;45.190;5.722;2022-10-16T04:48:39;18.00;66.70
32173;DHT22;18679;45.190;5.722;2022-10-16T04:51:39;18.00;66.80
32173;DHT22;18679;45.190;5.722;2022-10-16T04:54:40;17.90;66.70
32173;DHT22;18679;45.190;5.722;2022-10-16T04:57:41;17.90;66.80
32173;DHT22;18679;45.190;5.722;2022-10-16T05:00:43;17.90;66.80
32173;DHT22;18679;45.190;5.722;2022-10-16T05:03:45;17.90;66.80
32173;DHT22;18679;45.190;5.722;2022-10-16T05:06:47;17.90;66.80
32173;DHT22;18679;45.190;5.722;2022-10-16T05:09:48;17.90;66.80
32173;DHT22;18679;45.190;5.722;2022-10-16T05:12:49;17.90;66.80
32173;DHT22;18679;45.190;5.722;2022-10-16T05:15:51;18.00;66.80
32173;DHT22;18679;45.190;5.722;2022-10-16T05:18:53;17.90;66.70
32173;DHT22;18679;45.190;5.722;2022-10-16T05:21:54;17.90;66.80
32173;DHT22;18679;45.190;5.722;2022-10-16T05:24:54;17.90;66.70
32173;DHT22;18679;45.190;5.722;2022-10-16T05:27:55;17.90;66.80
32173;DHT22;18679;45.190;5.722;2022-10-16T05:30:57;17.90;66.80
32173;DHT22;18679;45.190;5.722;2022-10-16T05:34:01;17.90;66.90
32173;DHT22;18679;45.190;5.722;2022-10-16T05:37:02;17.80;66.90
32173;DHT22;18679;45.190;5.722;2022-10-16T05:40:03;17.80;67.00
32173;DHT22;18679;45.190;5.722;2022-10-16T05:43:05;17.80;67.00
32173;DHT22;18679;45.190;5.722;2022-10-16T05:46:06;17.70;66.90
32173;DHT22;18679;45.190;5.722;2022-10-16T05:49:07;17.70;67.00
32173;DHT22;18679;45.190;5.722;2022-10-16T05:52:09;17.70;67.00
32173;DHT22;18679;45.190;5.722;2022-10-16T05:55:10;17.70;67.10
32173;DHT22;18679;45.190;5.722;2022-10-16T05:58:11;17.70;67.20
32173;DHT22;18679;45.190;5.722;2022-10-16T06:01:14;17.70;67.20
32173;DHT22;18679;45.190;5.722;2022-10-16T06:04:17;17.70;67.20
32173;DHT22;18679;45.190;5.722;2022-10-16T06:07:18;17.70;67.10
32173;DHT22;18679;45.190;5.722;2022-10-16T06:10:18;17.70;67.10
32173;DHT22;18679;45.190;5.722;2022-10-16T06:13:19;17.70;67.10
32173;DHT22;18679;45.190;5.722;2022-10-16T06:16:20;17.60;67.00
32173;DHT22;18679;45.190;5.722;2022-10-16T06:19:21;17.60;66.90
32173;DHT22;18679;45.190;5.722;2022-10-16T06:22:23;17.60;67.10
32173;DHT22;18679;45.190;5.722;2022-10-16T06:25:25;17.60;67.10
32173;DHT22;18679;45.190;5.722;2022-10-16T06:28:26;17.60;67.10
32173;DHT22;18679;45.190;5.722;2022-10-16T06:31:28;17.60;67.10
32173;DHT22;18679;45.190;5.722;2022-10-16T06:34:31;17.60;67.10
32173;DHT22;18679;45.190;5.722;2022-10-16T06:37:32;17.60;67.00
32173;DHT22;18679;45.190;5.722;2022-10-16T06:40:33;17.60;66.90
32173;DHT22;18679;45.190;5.722;2022-10-16T06:43:34;17.60;66.90
32173;DHT22;18679;45.190;5.722;2022-10-16T06:46:37;17.60;66.80
32173;DHT22;18679;45.190;5.722;2022-10-16T06:49:38;17.70;66.90
32173;DHT22;18679;45.190;5.722;2022-10-16T06:52:39;17.70;66.70
32173;DHT22;18679;45.190;5.722;2022-10-16T06:55:39;17.70;66.50
32173;DHT22;18679;45.190;5.722;2022-10-16T06:58:41;17.70;66.40
32173;DHT22;18679;45.190;5.722;2022-10-16T07:01:42;17.80;66.40
32173;DHT22;18679;45.190;5.722;2022-10-16T07:04:43;17.80;66.30
32173;DHT22;18679;45.190;5.722;2022-10-16T07:07:44;17.80;66.30
32173;DHT22;18679;45.190;5.722;2022-10-16T07:10:45;17.80;66.20
32173;DHT22;18679;45.190;5.722;2022-10-16T07:13:46;17.90;66.30
32173;DHT22;18679;45.190;5.722;2022-10-16T07:16:48;17.90;66.00
32173;DHT22;18679;45.190;5.722;2022-10-16T07:19:49;17.90;65.90
32173;DHT22;18679;45.190;5.722;2022-10-16T07:22:50;18.00;65.80
32173;DHT22;18679;45.190;5.722;2022-10-16T07:25:54;18.00;65.70
32173;DHT22;18679;45.190;5.722;2022-10-16T07:28:56;18.00;65.70
32173;DHT22;18679;45.190;5.722;2022-10-16T07:31:57;18.00;65.60
32173;DHT22;18679;45.190;5.722;2022-10-16T07:34:58;18.00;65.50
32173;DHT22;18679;45.190;5.722;2022-10-16T07:37:59;18.00;65.30
32173;DHT22;18679;45.190;5.722;2022-10-16T07:41:05;18.10;65.00
32173;DHT22;18679;45.190;5.722;2022-10-16T07:44:06;18.10;64.80
32173;DHT22;18679;45.190;5.722;2022-10-16T07:47:07;18.20;64.90
32173;DHT22;18679;45.190;5.722;2022-10-16T07:50:08;18.30;64.60
32173;DHT22;18679;45.190;5.722;2022-10-16T07:53:10;18.40;64.30
32173;DHT22;18679;45.190;5.722;2022-10-16T07:56:12;18.50;63.90
32173;DHT22;18679;45.190;5.722;2022-10-16T07:59:13;18.70;63.50
32173;DHT22;18679;45.190;5.722;2022-10-16T08:02:14;18.70;63.20
32173;DHT22;18679;45.190;5.722;2022-10-16T08:05:15;18.90;62.50
32173;DHT22;18679;45.190;5.722;2022-10-16T08:08:17;18.90;62.20
32173;DHT22;18679;45.190;5.722;2022-10-16T08:11:18;19.00;62.50
32173;DHT22;18679;45.190;5.722;2022-10-16T08:14:19;19.20;61.50
32173;DHT22;18679;45.190;5.722;2022-10-16T08:17:20;19.30;60.70
32173;DHT22;18679;45.190;5.722;2022-10-16T08:20:21;19.40;60.30
32173;DHT22;18679;45.190;5.722;2022-10-16T08:23:22;19.50;59.60
32173;DHT22;18679;45.190;5.722;2022-10-16T08:26:23;19.60;59.30
32173;DHT22;18679;45.190;5.722;2022-10-16T08:29:24;19.70;59.00
32173;DHT22;18679;45.190;5.722;2022-10-16T08:32:25;19.90;58.90
32173;DHT22;18679;45.190;5.722;2022-10-16T08:35:26;20.00;58.50
32173;DHT22;18679;45.190;5.722;2022-10-16T08:38:27;20.10;58.10
32173;DHT22;18679;45.190;5.722;2022-10-16T08:48:30;20.40;57.30
32173;DHT22;18679;45.190;5.722;2022-10-16T08:51:37;20.60;57.20
32173;DHT22;18679;45.190;5.722;2022-10-16T08:54:42;20.70;56.70
32173;DHT22;18679;45.190;5.722;2022-10-16T08:57:44;20.80;56.60
32173;DHT22;18679;45.190;5.722;2022-10-16T09:00:54;20.90;56.10
32173;DHT22;18679;45.190;5.722;2022-10-16T09:11:55;21.30;55.60
32173;DHT22;18679;45.190;5.722;2022-10-16T09:24:16;21.80;54.80
32173;DHT22;18679;45.190;5.722;2022-10-16T09:27:17;21.90;54.70
32173;DHT22;18679;45.190;5.722;2022-10-16T09:30:21;22.10;54.50
32173;DHT22;18679;45.190;5.722;2022-10-16T09:33:35;22.20;54.40
32173;DHT22;18679;45.190;5.722;2022-10-16T09:36:42;22.20;54.10
32173;DHT22;18679;45.190;5.722;2022-10-16T09:39:45;22.30;53.90
32173;DHT22;18679;45.190;5.722;2022-10-16T09:42:47;22.30;54.20
32173;DHT22;18679;45.190;5.722;2022-10-16T09:45:59;22.40;53.50
32173;DHT22;18679;45.190;5.722;2022-10-16T09:49:05;22.50;53.40
32173;DHT22;18679;45.190;5.722;2022-10-16T09:52:12;22.60;53.00
32173;DHT22;18679;45.190;5.722;2022-10-16T09:55:16;22.60;52.80
32173;DHT22;18679;45.190;5.722;2022-10-16T09:58:18;22.70;52.70
32173;DHT22;18679;45.190;5.722;2022-10-16T10:01:36;22.70;52.50
32173;DHT22;18679;45.190;5.722;2022-10-16T10:04:48;22.80;52.50
32173;DHT22;18679;45.190;5.722;2022-10-16T10:08:03;23.00;52.60
32173;DHT22;18679;45.190;5.722;2022-10-16T10:11:08;23.20;52.20
32173;DHT22;18679;45.190;5.722;2022-10-16T10:17:25;23.80;51.30
32173;DHT22;18679;45.190;5.722;2022-10-16T10:20:27;24.20;50.80
32173;DHT22;18679;45.190;5.722;2022-10-16T10:23:29;24.50;50.50
32173;DHT22;18679;45.190;5.722;2022-10-16T10:26:33;24.80;50.00
32173;DHT22;18679;45.190;5.722;2022-10-16T10:29:52;25.10;49.20
32173;DHT22;18679;45.190;5.722;2022-10-16T10:33:28;25.30;49.00
32173;DHT22;18679;45.190;5.722;2022-10-16T10:36:40;25.50;48.40
32173;DHT22;18679;45.190;5.722;2022-10-16T10:39:53;25.80;47.70
32173;DHT22;18679;45.190;5.722;2022-10-16T11:03:07;27.70;44.60
32173;DHT22;18679;45.190;5.722;2022-10-16T11:09:32;28.40;43.60
32173;DHT22;18679;45.190;5.722;2022-10-16T11:13:31;28.90;43.00
32173;DHT22;18679;45.190;5.722;2022-10-16T11:16:30;29.40;42.30
32173;DHT22;18679;45.190;5.722;2022-10-16T11:19:45;29.80;41.50
32173;DHT22;18679;45.190;5.722;2022-10-16T11:22:57;30.10;40.40
32173;DHT22;18679;45.190;5.722;2022-10-16T11:26:03;30.40;39.40
32173;DHT22;18679;45.190;5.722;2022-10-16T11:29:15;30.80;38.50
32173;DHT22;18679;45.190;5.722;2022-10-16T11:33:00;31.30;37.60
32173;DHT22;18679;45.190;5.722;2022-10-16T11:36:03;31.90;36.40
32173;DHT22;18679;45.190;5.722;2022-10-16T11:42:26;32.80;34.60
32173;DHT22;18679;45.190;5.722;2022-10-16T11:45:46;33.00;33.90
32173;DHT22;18679;45.190;5.722;2022-10-16T11:52:10;33.40;32.20
32173;DHT22;18679;45.190;5.722;2022-10-16T11:55:14;33.60;31.20
32173;DHT22;18679;45.190;5.722;2022-10-16T12:01:47;34.00;29.80
32173;DHT22;18679;45.190;5.722;2022-10-16T12:05:17;34.30;29.30
32173;DHT22;18679;45.190;5.722;2022-10-16T12:08:19;34.50;28.90
32173;DHT22;18679;45.190;5.722;2022-10-16T12:11:30;34.70;28.30
32173;DHT22;18679;45.190;5.722;2022-10-16T12:14:34;35.10;28.20
32173;DHT22;18679;45.190;5.722;2022-10-16T12:17:37;35.70;27.80
32173;DHT22;18679;45.190;5.722;2022-10-16T12:20:38;36.30;26.80
32173;DHT22;18679;45.190;5.722;2022-10-16T12:26:47;37.10;25.40
32173;DHT22;18679;45.190;5.722;2022-10-16T12:29:55;37.10;24.60
32173;DHT22;18679;45.190;5.722;2022-10-16T12:33:02;37.10;24.60
32173;DHT22;18679;45.190;5.722;2022-10-16T12:36:16;36.60;24.50
32173;DHT22;18679;45.190;5.722;2022-10-16T12:39:27;35.80;25.10
32173;DHT22;18679;45.190;5.722;2022-10-16T12:45:34;34.10;25.90
32173;DHT22;18679;45.190;5.722;2022-10-16T12:48:39;33.50;26.50
32173;DHT22;18679;45.190;5.722;2022-10-16T12:51:41;33.00;27.00
32173;DHT22;18679;45.190;5.722;2022-10-16T12:54:43;32.60;27.00
32173;DHT22;18679;45.190;5.722;2022-10-16T12:58:18;32.30;27.30
32173;DHT22;18679;45.190;5.722;2022-10-16T13:11:29;31.20;28.10
32173;DHT22;18679;45.190;5.722;2022-10-16T13:18:27;31.00;28.40
32173;DHT22;18679;45.190;5.722;2022-10-16T13:25:39;30.80;28.60
32173;DHT22;18679;45.190;5.722;2022-10-16T13:28:42;30.70;28.60
32173;DHT22;18679;45.190;5.722;2022-10-16T13:31:44;30.70;28.60
32173;DHT22;18679;45.190;5.722;2022-10-16T13:34:47;30.60;28.70
32173;DHT22;18679;45.190;5.722;2022-10-16T13:37:49;30.60;28.80
32173;DHT22;18679;45.190;5.722;2022-10-16T13:44:20;30.50;28.80
32173;DHT22;18679;45.190;5.722;2022-10-16T13:47:23;30.50;28.60
32173;DHT22;18679;45.190;5.722;2022-10-16T13:50:25;30.50;28.60
32173;DHT22;18679;45.190;5.722;2022-10-16T13:53:26;30.50;28.40
32173;DHT22;18679;45.190;5.722;2022-10-16T13:56:29;30.50;28.40
32173;DHT22;18679;45.190;5.722;2022-10-16T13:59:35;30.40;28.40
32173;DHT22;18679;45.190;5.722;2022-10-16T14:02:39;30.40;28.40
32173;DHT22;18679;45.190;5.722;2022-10-16T14:05:52;30.30;28.40
32173;DHT22;18679;45.190;5.722;2022-10-16T14:12:10;30.20;28.60
32173;DHT22;18679;45.190;5.722;2022-10-16T14:15:19;30.20;28.80
32173;DHT22;18679;45.190;5.722;2022-10-16T14:18:22;30.20;28.70
32173;DHT22;18679;45.190;5.722;2022-10-16T14:21:24;30.10;28.60
32173;DHT22;18679;45.190;5.722;2022-10-16T14:24:33;30.10;28.40
32173;DHT22;18679;45.190;5.722;2022-10-16T14:27:37;30.10;28.50
32173;DHT22;18679;45.190;5.722;2022-10-16T14:30:58;30.10;28.60
32173;DHT22;18679;45.190;5.722;2022-10-16T14:34:00;30.10;28.50
32173;DHT22;18679;45.190;5.722;2022-10-16T14:40:14;30.00;28.60
32173;DHT22;18679;45.190;5.722;2022-10-16T14:43:26;30.00;28.80
32173;DHT22;18679;45.190;5.722;2022-10-16T14:46:33;30.00;28.70
32173;DHT22;18679;45.190;5.722;2022-10-16T14:49:35;29.90;28.80
32173;DHT22;18679;45.190;5.722;2022-10-16T14:52:36;29.90;28.90
32173;DHT22;18679;45.190;5.722;2022-10-16T14:55:37;29.80;28.80
32173;DHT22;18679;45.190;5.722;2022-10-16T14:58:39;29.80;28.80
32173;DHT22;18679;45.190;5.722;2022-10-16T15:01:40;29.80;29.00
32173;DHT22;18679;45.190;5.722;2022-10-16T15:04:42;29.70;29.10
32173;DHT22;18679;45.190;5.722;2022-10-16T15:07:43;29.70;29.00
32173;DHT22;18679;45.190;5.722;2022-10-16T15:10:44;29.60;29.10
32173;DHT22;18679;45.190;5.722;2022-10-16T15:13:46;29.50;29.10
32173;DHT22;18679;45.190;5.722;2022-10-16T15:16:46;29.50;29.10
32173;DHT22;18679;45.190;5.722;2022-10-16T15:19:47;29.40;29.10
32173;DHT22;18679;45.190;5.722;2022-10-16T15:22:48;29.40;29.10
32173;DHT22;18679;45.190;5.722;2022-10-16T15:25:52;29.40;29.10
32173;DHT22;18679;45.190;5.722;2022-10-16T15:28:54;29.30;29.20
32173;DHT22;18679;45.190;5.722;2022-10-16T15:31:55;29.30;29.30
32173;DHT22;18679;45.190;5.722;2022-10-16T15:34:56;29.30;29.40
32173;DHT22;18679;45.190;5.722;2022-10-16T15:37:57;29.20;29.40
32173;DHT22;18679;45.190;5.722;2022-10-16T15:40:58;29.20;29.40
32173;DHT22;18679;45.190;5.722;2022-10-16T15:43:59;29.20;29.50
32173;DHT22;18679;45.190;5.722;2022-10-16T15:47:00;29.10;29.50
32173;DHT22;18679;45.190;5.722;2022-10-16T15:50:02;29.10;29.40
32173;DHT22;18679;45.190;5.722;2022-10-16T15:53:03;29.10;29.50
32173;DHT22;18679;45.190;5.722;2022-10-16T15:56:07;29.00;29.50
32173;DHT22;18679;45.190;5.722;2022-10-16T15:59:08;29.00;29.70
32173;DHT22;18679;45.190;5.722;2022-10-16T16:02:09;28.90;29.70
32173;DHT22;18679;45.190;5.722;2022-10-16T16:05:10;28.80;29.80
32173;DHT22;18679;45.190;5.722;2022-10-16T16:08:11;28.70;29.90
32173;DHT22;18679;45.190;5.722;2022-10-16T16:11:14;28.70;30.00
32173;DHT22;18679;45.190;5.722;2022-10-16T16:14:15;28.60;30.00
32173;DHT22;18679;45.190;5.722;2022-10-16T16:17:16;28.60;30.20
32173;DHT22;18679;45.190;5.722;2022-10-16T16:20:18;28.50;30.30
32173;DHT22;18679;45.190;5.722;2022-10-16T16:23:19;28.40;30.40
32173;DHT22;18679;45.190;5.722;2022-10-16T16:26:25;28.30;30.60
32173;DHT22;18679;45.190;5.722;2022-10-16T16:29:26;28.30;30.80
32173;DHT22;18679;45.190;5.722;2022-10-16T16:32:27;28.20;30.90
32173;DHT22;18679;45.190;5.722;2022-10-16T16:35:28;28.10;31.00
32173;DHT22;18679;45.190;5.722;2022-10-16T16:38:29;28.00;31.10
32173;DHT22;18679;45.190;5.722;2022-10-16T16:41:30;28.00;31.30
32173;DHT22;18679;45.190;5.722;2022-10-16T16:44:32;27.90;31.50
32173;DHT22;18679;45.190;5.722;2022-10-16T16:47:33;27.80;31.60
32173;DHT22;18679;45.190;5.722;2022-10-16T16:50:37;27.80;31.90
32173;DHT22;18679;45.190;5.722;2022-10-16T16:53:38;27.70;32.00
32173;DHT22;18679;45.190;5.722;2022-10-16T16:56:39;27.60;32.20
32173;DHT22;18679;45.190;5.722;2022-10-16T16:59:43;27.60;32.40
32173;DHT22;18679;45.190;5.722;2022-10-16T17:02:43;27.50;32.50
32173;DHT22;18679;45.190;5.722;2022-10-16T17:06:18;27.40;32.60
32173;DHT22;18679;45.190;5.722;2022-10-16T17:09:20;27.30;32.80
32173;DHT22;18679;45.190;5.722;2022-10-16T17:12:21;27.30;32.80
32173;DHT22;18679;45.190;5.722;2022-10-16T17:15:22;27.20;32.90
32173;DHT22;18679;45.190;5.722;2022-10-16T17:18:23;27.20;33.10
32173;DHT22;18679;45.190;5.722;2022-10-16T17:21:24;27.20;33.20
32173;DHT22;18679;45.190;5.722;2022-10-16T17:24:27;27.20;33.30
32173;DHT22;18679;45.190;5.722;2022-10-16T17:27:28;27.10;33.40
32173;DHT22;18679;45.190;5.722;2022-10-16T17:30:29;27.10;33.50
32173;DHT22;18679;45.190;5.722;2022-10-16T17:33:30;27.00;33.50
32173;DHT22;18679;45.190;5.722;2022-10-16T17:36:33;27.00;33.70
32173;DHT22;18679;45.190;5.722;2022-10-16T17:39:34;26.90;33.90
32173;DHT22;18679;45.190;5.722;2022-10-16T17:42:35;26.90;33.90
32173;DHT22;18679;45.190;5.722;2022-10-16T17:45:36;26.80;34.00
32173;DHT22;18679;45.190;5.722;2022-10-16T17:48:41;26.80;34.10
32173;DHT22;18679;45.190;5.722;2022-10-16T17:51:45;26.70;34.20
32173;DHT22;18679;45.190;5.722;2022-10-16T17:54:49;26.70;34.30
32173;DHT22;18679;45.190;5.722;2022-10-16T17:57:51;26.70;34.40
32173;DHT22;18679;45.190;5.722;2022-10-16T18:00:53;26.70;34.50
32173;DHT22;18679;45.190;5.722;2022-10-16T18:03:58;26.60;34.70
32173;DHT22;18679;45.190;5.722;2022-10-16T18:07:01;26.50;34.80
32173;DHT22;18679;45.190;5.722;2022-10-16T18:10:03;26.50;34.80
32173;DHT22;18679;45.190;5.722;2022-10-16T18:13:07;26.50;34.90
32173;DHT22;18679;45.190;5.722;2022-10-16T18:16:11;26.60;35.00
32173;DHT22;18679;45.190;5.722;2022-10-16T18:19:13;26.50;35.00
32173;DHT22;18679;45.190;5.722;2022-10-16T18:22:14;26.50;35.00
32173;DHT22;18679;45.190;5.722;2022-10-16T18:25:15;26.50;35.10
32173;DHT22;18679;45.190;5.722;2022-10-16T18:28:15;26.50;35.20
32173;DHT22;18679;45.190;5.722;2022-10-16T18:31:17;26.50;35.30
32173;DHT22;18679;45.190;5.722;2022-10-16T18:34:19;26.50;35.40
32173;DHT22;18679;45.190;5.722;2022-10-16T18:37:20;26.40;35.40
32173;DHT22;18679;45.190;5.722;2022-10-16T18:40:21;26.40;35.50
32173;DHT22;18679;45.190;5.722;2022-10-16T18:43:22;26.50;35.60
32173;DHT22;18679;45.190;5.722;2022-10-16T18:46:24;26.40;36.20
32173;DHT22;18679;45.190;5.722;2022-10-16T18:49:26;26.40;35.70
32173;DHT22;18679;45.190;5.722;2022-10-16T18:52:29;26.30;35.80
32173;DHT22;18679;45.190;5.722;2022-10-16T18:55:30;26.30;35.90
32173;DHT22;18679;45.190;5.722;2022-10-16T18:58:34;26.30;36.00
32173;DHT22;18679;45.190;5.722;2022-10-16T19:01:36;26.30;36.70
32173;DHT22;18679;45.190;5.722;2022-10-16T19:04:40;26.30;36.10
32173;DHT22;18679;45.190;5.722;2022-10-16T19:07:44;26.20;36.00
32173;DHT22;18679;45.190;5.722;2022-10-16T19:10:45;26.20;36.20
32173;DHT22;18679;45.190;5.722;2022-10-16T19:13:47;26.20;36.30
32173;DHT22;18679;45.190;5.722;2022-10-16T19:16:48;26.20;36.50
32173;DHT22;18679;45.190;5.722;2022-10-16T19:19:49;26.10;36.50
32173;DHT22;18679;45.190;5.722;2022-10-16T19:22:50;26.10;36.60
32173;DHT22;18679;45.190;5.722;2022-10-16T19:25:53;26.00;36.70
32173;DHT22;18679;45.190;5.722;2022-10-16T19:28:55;25.90;36.80
32173;DHT22;18679;45.190;5.722;2022-10-16T19:31:58;25.80;37.30
32173;DHT22;18679;45.190;5.722;2022-10-16T19:35:01;25.70;37.80
32173;DHT22;18679;45.190;5.722;2022-10-16T19:38:02;25.50;38.40
32173;DHT22;18679;45.190;5.722;2022-10-16T19:41:12;25.30;39.30
32173;DHT22;18679;45.190;5.722;2022-10-16T19:44:15;25.20;40.10
32173;DHT22;18679;45.190;5.722;2022-10-16T19:47:16;25.00;40.70
32173;DHT22;18679;45.190;5.722;2022-10-16T19:50:17;24.90;41.70
32173;DHT22;18679;45.190;5.722;2022-10-16T19:53:19;24.70;42.30
32173;DHT22;18679;45.190;5.722;2022-10-16T19:56:21;24.60;43.00
32173;DHT22;18679;45.190;5.722;2022-10-16T19:59:22;24.50;44.00
32173;DHT22;18679;45.190;5.722;2022-10-16T20:02:23;24.30;44.60
32173;DHT22;18679;45.190;5.722;2022-10-16T20:05:24;24.20;45.00
32173;DHT22;18679;45.190;5.722;2022-10-16T20:08:25;24.20;45.20
32173;DHT22;18679;45.190;5.722;2022-10-16T20:11:31;24.10;46.10
32173;DHT22;18679;45.190;5.722;2022-10-16T20:14:33;24.00;46.30
32173;DHT22;18679;45.190;5.722;2022-10-16T20:17:34;24.00;46.50
32173;DHT22;18679;45.190;5.722;2022-10-16T20:20:39;24.00;46.60
32173;DHT22;18679;45.190;5.722;2022-10-16T20:23:41;23.90;47.00
32173;DHT22;18679;45.190;5.722;2022-10-16T20:26:42;23.90;47.20
32173;DHT22;18679;45.190;5.722;2022-10-16T20:29:43;23.80;47.60
32173;DHT22;18679;45.190;5.722;2022-10-16T20:32:44;23.80;47.90
32173;DHT22;18679;45.190;5.722;2022-10-16T20:35:47;23.80;48.20
32173;DHT22;18679;45.190;5.722;2022-10-16T20:38:49;23.70;48.60
32173;DHT22;18679;45.190;5.722;2022-10-16T20:41:49;23.70;49.00
32173;DHT22;18679;45.190;5.722;2022-10-16T20:44:52;23.70;49.00
32173;DHT22;18679;45.190;5.722;2022-10-16T20:47:52;23.60;48.70
32173;DHT22;18679;45.190;5.722;2022-10-16T20:50:53;23.60;47.80
32173;DHT22;18679;45.190;5.722;2022-10-16T20:54:03;23.60;48.10
32173;DHT22;18679;45.190;5.722;2022-10-16T20:57:07;23.60;47.00
32173;DHT22;18679;45.190;5.722;2022-10-16T21:00:08;23.70;46.70
32173;DHT22;18679;45.190;5.722;2022-10-16T21:03:10;23.70;46.80